Terminal Aerodrome Forecast
Issued by NWS Wichita, KS

Home | Current Version | Previous Version | Graphics & Text | Print | Product List | Glossary On
Versions: 1 2 3 4 5 6 7 8 9 10 11 12 13 14
000
FTUS43 KICT 301100
TAFICT
TAF
KICT 301120Z 3012/3112 04007KT P6SM VCSH SCT025 BKN050
     FM301500 13007KT 5SM SHRA VCTS SCT008 OVC015CB
     FM310100 VRB05KT P6SM VCSH SCT020 BKN050
     FM310600 VRB03KT 4SM BR SCT100=

USA.gov is the U.S. government's official web portal to all federal, state and local government web resources and services.